Strong — WDD9335 — position and weather

sailwx.info

Track history (hours):
 
Tides and Currents Weather Stations Pressure Air Temp Water Temp Dewpoint Dewpoint Depression Visibility Wind Speed Wind Dir Waves Ship Positions

Strong

Owner: Foss International, Inc., Seattle, WA. More information available from US FCC via Universal Licensing System and Coast Guard Vessel Documentation Center.

Last reported at 2015-Nov-22 07:05 UTC. Time now 2016-May-01 11:45 UTC.
Position N 01°15' E 104°04'.
Warning: this ship's position is months out of date.

Length 172 m; draft 7.5 m.

Type: Cargo ship. MMSI: 368533000.

Date/timePositionNaut miles runAvg speedWind from/ knotsBaromVisibWave heightAir tempDewpointWater temp
2015-Nov-22 07:05N 01°15' E 104°04'5 9.0
2015-Nov-22 06:33N 01°14' E 103°60'10 9.4
2015-Nov-22 05:32N 01°11' E 103°51'13 4.0
2015-Nov-22 02:15N 01°11' E 103°38'3 4.2
2015-Nov-22 01:28N 01°14' E 103°40'  
2015-Nov-19 06:25N 01°13' E 103°40'2 1.9
2015-Nov-19 05:33N 01°12' E 103°41'0 0.1
2015-Nov-19 04:33N 01°12' E 103°41'0 0.0
2015-Nov-19 03:30N 01°12' E 103°41'0 0.0
2015-Nov-19 02:33N 01°12' E 103°41'0 0.2
2015-Nov-19 01:33N 01°12' E 103°41'1 0.6
2015-Nov-19 00:33N 01°12' E 103°41'6 6.1
2015-Nov-18 23:33N 01°12' E 103°35'  
Track history (hours):
 
Tides and Currents Weather Stations Pressure Air Temp Water Temp Dewpoint Dewpoint Depression Visibility Wind Speed Wind Dir Waves Ship Positions

Strong

Owner: Foss International, Inc., Seattle, WA. More information available from US FCC via Universal Licensing System and Coast Guard Vessel Documentation Center.

Last reported at 2015-Nov-22 07:05 UTC. Time now 2016-May-01 11:45 UTC.
Position N 01°15' E 104°04'.
Warning: this ship's position is months out of date.

Length 172 m; draft 7.5 m.

Type: Cargo ship. MMSI: 368533000.

Date/timePositionNaut miles runAvg speedWind from/ knotsBaromVisibWave heightAir tempDewpointWater temp
2015-Nov-22 07:05N 01°15' E 104°04'5 9.0
2015-Nov-22 06:33N 01°14' E 103°60'10 9.4
2015-Nov-22 05:32N 01°11' E 103°51'13 4.0
2015-Nov-22 02:15N 01°11' E 103°38'3 4.2
2015-Nov-22 01:28N 01°14' E 103°40'  
2015-Nov-19 06:25N 01°13' E 103°40'2 1.9
2015-Nov-19 05:33N 01°12' E 103°41'0 0.1
2015-Nov-19 04:33N 01°12' E 103°41'0 0.0
2015-Nov-19 03:30N 01°12' E 103°41'0 0.0
2015-Nov-19 02:33N 01°12' E 103°41'0 0.2
2015-Nov-19 01:33N 01°12' E 103°41'1 0.6
2015-Nov-19 00:33N 01°12' E 103°41'6 6.1
2015-Nov-18 23:33N 01°12' E 103°35'  

Dump ship's entire track history